CEF4 weather

Airdrie Airport
Airdrie, Alberta, Canada

Public forecast

Using degrees Celsius for public forecast. Weather courtesy of forecast.io.

Closest aviation weather report (METAR) to Airdrie Airport

Closest report is Calgary International Airport, 9.6 nm (17.7 km) SSW. Retrieved 2019/10/16 05:00 UTC (37 minutes ago):

CYYC 160500Z 31013G19KT 15SM FEW200 BKN260 10/M03 A2972 RMK CI1CS5 HALO SLP094 DENSITY ALT 4100FT

Closest aviation forecast (TAF) to Airdrie Airport

Closest forecast is Calgary International Airport, 9.6 nm (17.7 km) SSW. Retrieved 2019-10-16 03:42 UTC (2 hours ago):

TAF CYYC 160238Z 1603/1624 22008KT P6SM FEW090 SCT180 BKN240 BECMG 1604/1606 28008KT FM161700 22010KT P6SM FEW180 SCT240 RMK NXT FCST BY 160600Z